createdAt,value
2023-05-12T00:00:45.621Z,37.46
2023-05-12T00:03:54.036Z,36.90
2023-05-12T00:07:00.797Z,37.17
2023-05-12T00:10:06.812Z,37.17
2023-05-12T00:13:16.035Z,36.92
2023-05-12T00:16:21.806Z,36.97
2023-05-12T00:19:28.425Z,37.12
2023-05-12T00:22:34.483Z,37.14
2023-05-12T00:25:40.849Z,37.25
2023-05-12T00:28:49.039Z,37.47
2023-05-12T00:31:55.509Z,37.85
2023-05-12T00:35:01.222Z,38.09
2023-05-12T00:38:07.732Z,37.82
2023-05-12T00:41:13.350Z,37.83
2023-05-12T00:44:22.493Z,37.98
2023-05-12T00:47:28.383Z,37.83
2023-05-12T00:50:35.403Z,38.11
2023-05-12T00:53:48.208Z,38.07
2023-05-12T00:56:55.619Z,37.88
2023-05-12T01:00:05.216Z,38.08
2023-05-12T01:03:12.714Z,38.25
2023-05-12T01:06:30.076Z,38.10
2023-05-12T01:09:37.026Z,38.05
2023-05-12T01:12:42.800Z,38.41
2023-05-12T01:15:56.994Z,37.95
2023-05-12T01:19:10.789Z,38.03
2023-05-12T01:22:20.581Z,37.95
2023-05-12T01:25:28.208Z,37.95
2023-05-12T01:28:39.097Z,37.96
2023-05-12T01:31:45.858Z,38.07
2023-05-12T01:34:52.656Z,38.50
2023-05-12T01:37:59.229Z,38.79
2023-05-12T01:41:05.606Z,38.64
2023-05-12T01:44:14.032Z,38.86
2023-05-12T01:47:21.901Z,38.88
2023-05-12T01:50:34.404Z,38.95
2023-05-12T01:53:41.802Z,39.25
2023-05-12T01:56:47.672Z,39.12
2023-05-12T01:59:57.434Z,39.36
2023-05-12T02:03:03.435Z,39.90
2023-05-12T02:06:10.233Z,40.00
2023-05-12T02:09:16.681Z,40.50
2023-05-12T02:12:23.415Z,40.65
2023-05-12T02:15:32.711Z,41.00
2023-05-12T02:18:39.450Z,41.36
2023-05-12T02:21:46.341Z,41.07
2023-05-12T02:24:52.729Z,41.42
2023-05-12T02:27:58.491Z,41.65
2023-05-12T02:31:07.772Z,41.40
2023-05-12T02:34:14.611Z,41.45
2023-05-12T02:37:21.055Z,41.69
2023-05-12T02:40:27.093Z,41.68
2023-05-12T02:43:35.277Z,42.35
2023-05-12T02:46:44.671Z,42.04
2023-05-12T02:49:51.484Z,42.87
2023-05-12T02:52:57.399Z,42.97
2023-05-12T02:56:04.797Z,42.85
2023-05-12T02:59:10.394Z,43.29
2023-05-12T03:02:19.650Z,43.25
2023-05-12T03:05:25.406Z,43.25
2023-05-12T03:08:31.851Z,43.26
2023-05-12T03:11:40.178Z,43.68
2023-05-12T03:14:46.938Z,43.60
2023-05-12T03:17:55.179Z,43.82
2023-05-12T03:21:01.915Z,44.19
2023-05-12T03:24:09.004Z,43.93
2023-05-12T03:27:15.519Z,43.77
2023-05-12T03:30:21.496Z,43.73
2023-05-12T03:33:30.828Z,43.84
2023-05-12T03:36:37.570Z,43.46
2023-05-12T03:39:44.056Z,43.44
2023-05-12T03:42:49.702Z,43.65
2023-05-12T03:45:57.920Z,44.34
2023-05-12T03:49:06.192Z,44.08
2023-05-12T03:52:12.678Z,44.35
2023-05-12T03:55:18.370Z,44.68
2023-05-12T03:58:26.189Z,43.75
2023-05-12T04:01:32.014Z,43.74
2023-05-12T04:04:43.133Z,43.64
2023-05-12T04:07:48.709Z,43.58
2023-05-12T04:10:58.441Z,43.15
2023-05-12T04:14:04.031Z,43.16
2023-05-12T04:17:10.454Z,43.49
2023-05-12T04:20:19.238Z,44.40
2023-05-12T04:23:26.372Z,44.33
2023-05-12T04:26:32.160Z,44.33
2023-05-12T04:29:38.682Z,43.99
2023-05-12T04:32:44.430Z,43.82
2023-05-12T04:36:01.165Z,43.55
2023-05-12T04:39:07.784Z,43.82
2023-05-12T04:42:14.299Z,43.71
2023-05-12T04:45:20.603Z,43.98
2023-05-12T04:48:27.468Z,43.72
2023-05-12T04:51:42.281Z,43.23
2023-05-12T04:54:48.731Z,43.16
2023-05-12T04:57:54.359Z,43.38
2023-05-12T05:01:01.068Z,43.50
2023-05-12T05:04:07.059Z,43.40
2023-05-12T05:07:16.767Z,42.82
2023-05-12T05:10:22.582Z,42.38
2023-05-12T05:13:28.996Z,42.89
2023-05-12T05:16:34.774Z,42.43
2023-05-12T05:19:55.059Z,42.76
2023-05-12T05:23:07.379Z,42.64
2023-05-12T05:26:14.012Z,42.92
2023-05-12T05:29:19.998Z,42.53
2023-05-12T05:32:26.956Z,43.67
2023-05-12T05:35:34.089Z,43.42
2023-05-12T05:38:43.491Z,43.03
2023-05-12T05:41:49.130Z,42.85
2023-05-12T05:44:56.267Z,42.19
2023-05-12T05:48:02.867Z,42.53
2023-05-12T05:51:11.775Z,42.65
2023-05-12T05:54:20.600Z,42.08
2023-05-12T05:57:28.372Z,41.20
2023-05-12T06:00:36.600Z,40.94
2023-05-12T06:03:43.114Z,41.57
2023-05-12T06:06:48.789Z,41.42
2023-05-12T06:09:59.016Z,41.81
2023-05-12T06:13:05.456Z,41.08
2023-05-12T06:16:12.484Z,41.19
2023-05-12T06:19:18.609Z,40.74
2023-05-12T06:22:25.278Z,41.46
2023-05-12T06:25:33.638Z,40.87
2023-05-12T06:28:40.749Z,40.51
2023-05-12T06:31:46.358Z,40.03
2023-05-12T06:34:54.697Z,40.35
2023-05-12T06:38:00.448Z,39.91
2023-05-12T06:41:09.656Z,39.67
2023-05-12T06:44:15.530Z,39.38
2023-05-12T06:47:24.156Z,39.46
2023-05-12T06:50:29.867Z,39.47
2023-05-12T06:53:38.267Z,38.40
2023-05-12T06:56:46.567Z,39.22
2023-05-12T06:59:53.101Z,37.47
2023-05-12T07:02:58.651Z,37.53
2023-05-12T07:06:05.292Z,37.18
2023-05-12T07:09:10.933Z,36.05
2023-05-12T07:12:20.055Z,36.56
2023-05-12T07:15:25.864Z,36.32
2023-05-12T07:18:32.359Z,35.92
2023-05-12T07:21:38.238Z,35.38
2023-05-12T07:24:45.198Z,33.91
2023-05-12T07:27:53.575Z,32.55
2023-05-12T07:31:00.216Z,31.06
2023-05-12T07:34:05.967Z,30.29
2023-05-12T07:37:12.351Z,29.12
2023-05-12T07:40:18.119Z,29.11
2023-05-12T07:43:30.490Z,29.08
2023-05-12T07:46:36.569Z,30.13
2023-05-12T07:49:43.226Z,29.63
2023-05-12T07:52:56.040Z,29.95
2023-05-12T07:56:02.545Z,29.05
2023-05-12T07:59:12.012Z,29.97
2023-05-12T08:02:18.573Z,30.02
2023-05-12T08:05:24.724Z,29.96
2023-05-12T08:08:32.913Z,30.02
2023-05-12T08:11:44.010Z,29.78
2023-05-12T08:14:55.153Z,30.91
2023-05-12T08:18:03.180Z,30.08
2023-05-12T08:21:09.989Z,30.79
2023-05-12T08:24:16.030Z,29.85
2023-05-12T08:27:22.607Z,29.63
2023-05-12T08:30:31.135Z,29.33
2023-05-12T08:33:39.499Z,28.97
2023-05-12T08:36:45.365Z,29.54
2023-05-12T08:39:52.228Z,29.83
2023-05-12T08:43:13.243Z,28.43
2023-05-12T08:46:23.984Z,26.83
2023-05-12T08:49:34.508Z,26.69
2023-05-12T08:52:42.118Z,24.40
2023-05-12T08:57:08.317Z,24.17
2023-05-12T08:59:18.039Z,23.99
2023-05-12T09:02:32.743Z,22.20
2023-05-12T09:05:46.403Z,20.66
2023-05-12T09:08:52.425Z,20.59
2023-05-12T09:12:04.536Z,19.12
2023-05-12T09:15:18.041Z,20.68
2023-05-12T09:18:27.224Z,19.73
2023-05-12T09:21:34.236Z,19.40
2023-05-12T09:24:45.953Z,18.21
2023-05-12T09:27:57.911Z,19.06
2023-05-12T09:31:04.333Z,19.03
2023-05-12T09:34:14.086Z,16.70
2023-05-12T09:37:20.588Z,15.95
2023-05-12T09:40:26.547Z,17.02
2023-05-12T09:43:33.478Z,16.32
2023-05-12T09:46:41.088Z,14.32
2023-05-12T09:49:57.011Z,15.95
2023-05-12T09:53:02.729Z,15.86
2023-05-12T09:56:09.254Z,14.40
2023-05-12T09:59:17.132Z,14.52
2023-05-12T10:02:24.054Z,15.92
2023-05-12T10:05:37.088Z,14.67
2023-05-12T10:08:51.788Z,15.24
2023-05-12T10:11:58.110Z,15.82
2023-05-12T10:15:07.384Z,16.48
2023-05-12T10:18:15.399Z,16.54
2023-05-12T10:21:26.365Z,18.48
2023-05-12T10:24:32.179Z,17.58
2023-05-12T10:27:39.887Z,18.07
2023-05-12T10:30:48.649Z,18.19
2023-05-12T10:34:02.407Z,16.66
2023-05-12T10:37:13.717Z,18.35
2023-05-12T10:40:27.691Z,18.79
2023-05-12T10:43:43.825Z,17.41
2023-05-12T10:47:01.107Z,16.79
2023-05-12T10:50:07.258Z,17.66
2023-05-12T10:53:16.414Z,17.89
2023-05-12T10:56:27.811Z,18.86
2023-05-12T10:59:34.810Z,19.19
2023-05-12T11:02:58.036Z,19.19
2023-05-12T11:06:09.103Z,18.56
2023-05-12T11:09:19.938Z,18.78
2023-05-12T11:12:28.461Z,19.00
2023-05-12T11:15:34.354Z,18.44
2023-05-12T11:18:41.022Z,19.29
2023-05-12T11:21:46.826Z,19.17
2023-05-12T11:24:57.135Z,19.83
2023-05-12T11:28:02.802Z,19.70
2023-05-12T11:31:09.302Z,19.85
2023-05-12T11:34:14.845Z,21.08
2023-05-12T11:37:21.589Z,19.86
2023-05-12T11:40:29.960Z,20.92
2023-05-12T11:43:36.558Z,21.34
2023-05-12T11:46:42.878Z,20.49
2023-05-12T11:49:52.556Z,20.71
2023-05-12T11:53:00.481Z,19.84
2023-05-12T11:56:10.199Z,20.38
2023-05-12T11:59:15.893Z,21.32
2023-05-12T12:02:24.270Z,20.50
2023-05-12T12:05:29.905Z,21.74
2023-05-12T12:08:40.797Z,20.43
2023-05-12T12:11:49.179Z,20.11
2023-05-12T12:15:00.259Z,20.13
2023-05-12T12:18:06.112Z,19.91
2023-05-12T12:21:12.691Z,20.05
2023-05-12T12:24:18.312Z,20.69
2023-05-12T12:27:27.332Z,21.38
2023-05-12T12:30:33.133Z,21.55
2023-05-12T12:33:39.845Z,21.09
2023-05-12T12:36:46.971Z,20.87
2023-05-12T12:39:53.639Z,21.49
2023-05-12T12:43:01.891Z,22.22
2023-05-12T12:46:08.528Z,22.50
2023-05-12T12:49:14.666Z,21.76
2023-05-12T12:52:21.190Z,22.06
2023-05-12T12:55:26.763Z,22.95
2023-05-12T12:58:35.962Z,22.60
2023-05-12T13:01:41.746Z,22.99
2023-05-12T13:04:48.122Z,23.39
2023-05-12T13:07:54.393Z,23.58
2023-05-12T13:11:00.855Z,24.08
2023-05-12T13:14:09.148Z,24.44
2023-05-12T13:17:15.676Z,23.68
2023-05-12T13:20:21.659Z,24.58
2023-05-12T13:23:28.512Z,24.09
2023-05-12T13:26:34.404Z,24.31
2023-05-12T13:29:47.444Z,24.21
2023-05-12T13:32:53.226Z,23.88
2023-05-12T13:35:59.758Z,23.48
2023-05-12T13:39:05.568Z,22.78
2023-05-12T13:42:12.081Z,22.53
2023-05-12T13:45:20.979Z,22.77
2023-05-12T13:48:27.994Z,22.72
2023-05-12T13:51:33.831Z,21.35
2023-05-12T13:54:40.463Z,20.96
2023-05-12T13:57:46.069Z,21.49
2023-05-12T14:00:55.259Z,21.90
2023-05-12T14:04:01.397Z,21.71
2023-05-12T14:07:08.890Z,22.53
2023-05-12T14:10:15.009Z,22.56
2023-05-12T14:13:21.810Z,21.82
2023-05-12T14:16:30.439Z,22.71
2023-05-12T14:19:36.876Z,21.90
2023-05-12T14:22:42.418Z,21.07
2023-05-12T14:25:48.908Z,21.14
2023-05-12T14:28:55.831Z,21.85
2023-05-12T14:32:07.177Z,22.01
2023-05-12T14:35:13.707Z,21.72
2023-05-12T14:38:20.081Z,22.26
2023-05-12T14:41:25.922Z,23.26
2023-05-12T14:44:32.564Z,23.33
2023-05-12T14:47:40.666Z,23.21
2023-05-12T14:50:47.041Z,23.37
2023-05-12T14:53:52.714Z,23.49
2023-05-12T14:56:59.433Z,23.72
2023-05-12T15:00:05.097Z,23.47
2023-05-12T15:03:14.440Z,23.90
2023-05-12T15:06:20.199Z,24.57
2023-05-12T15:09:29.151Z,24.63
2023-05-12T15:12:35.091Z,24.70
2023-05-12T15:15:42.170Z,25.04
2023-05-12T15:18:50.530Z,24.35
2023-05-12T15:21:57.032Z,24.75
2023-05-12T15:25:04.679Z,24.67
2023-05-12T15:28:11.487Z,24.85
2023-05-12T15:31:17.096Z,24.51
2023-05-12T15:34:26.117Z,24.33
2023-05-12T15:37:31.565Z,24.42
2023-05-12T15:40:37.999Z,24.65
2023-05-12T15:43:43.640Z,24.90
2023-05-12T15:46:50.439Z,24.96
2023-05-12T15:49:58.622Z,24.95
2023-05-12T15:53:05.106Z,24.62
2023-05-12T15:56:11.329Z,24.91
2023-05-12T15:59:18.084Z,23.83
2023-05-12T16:02:23.690Z,24.77
2023-05-12T16:05:34.358Z,23.10
2023-05-12T16:08:39.960Z,23.33
2023-05-12T16:11:46.390Z,22.95
2023-05-12T16:14:54.576Z,23.12
2023-05-12T16:18:01.414Z,23.27
2023-05-12T16:21:09.836Z,23.04
2023-05-12T16:24:16.731Z,22.90
2023-05-12T16:27:22.358Z,22.98
2023-05-12T16:30:29.396Z,23.07
2023-05-12T16:33:34.968Z,23.13
2023-05-12T16:36:44.076Z,23.37
2023-05-12T16:39:49.689Z,23.46
2023-05-12T16:42:56.200Z,23.81
2023-05-12T16:46:06.476Z,23.60
2023-05-12T16:49:13.246Z,24.00
2023-05-12T16:52:21.690Z,24.13
2023-05-12T16:55:28.504Z,24.18
2023-05-12T16:58:35.211Z,24.33
2023-05-12T17:01:41.794Z,24.61
2023-05-12T17:04:48.059Z,24.95
2023-05-12T17:07:57.233Z,24.92
2023-05-12T17:11:02.963Z,24.95
2023-05-12T17:14:09.382Z,25.20
2023-05-12T17:17:15.260Z,24.72
2023-05-12T17:20:22.373Z,24.82
2023-05-12T17:23:30.950Z,25.47
2023-05-12T17:26:37.929Z,25.59
2023-05-12T17:29:43.451Z,25.34
2023-05-12T17:32:50.001Z,25.82
2023-05-12T17:36:10.807Z,25.88
2023-05-12T17:39:21.199Z,26.30
2023-05-12T17:42:28.955Z,26.48
2023-05-12T17:45:36.840Z,26.48
2023-05-12T17:48:42.683Z,26.53
2023-05-12T17:51:49.666Z,26.55
2023-05-12T17:55:00.123Z,26.94
2023-05-12T17:58:06.622Z,26.97
2023-05-12T18:01:12.261Z,26.93
2023-05-12T18:04:19.602Z,27.11
2023-05-12T18:07:25.374Z,27.35
2023-05-12T18:10:37.583Z,27.44
2023-05-12T18:13:43.216Z,28.14
2023-05-12T18:16:49.657Z,28.04
2023-05-12T18:19:55.277Z,27.59
2023-05-12T18:23:01.741Z,27.86
2023-05-12T18:26:10.008Z,28.23
2023-05-12T18:29:16.589Z,27.91
2023-05-12T18:32:23.292Z,28.33
2023-05-12T18:35:30.916Z,28.65
2023-05-12T18:38:36.877Z,28.76
2023-05-12T18:41:46.060Z,28.93
2023-05-12T18:44:51.756Z,29.07
2023-05-12T18:47:58.265Z,28.96
2023-05-12T18:51:04.302Z,29.40
2023-05-12T18:54:10.799Z,29.50
2023-05-12T18:57:19.110Z,29.60
2023-05-12T19:00:27.812Z,29.75
2023-05-12T19:03:34.085Z,29.98
2023-05-12T19:06:40.557Z,29.59
2023-05-12T19:09:46.707Z,30.02
2023-05-12T19:12:55.909Z,30.13
2023-05-12T19:16:01.749Z,30.22
2023-05-12T19:19:08.474Z,30.00
2023-05-12T19:22:14.186Z,30.32
2023-05-12T19:25:21.028Z,30.20
2023-05-12T19:28:29.915Z,30.36
2023-05-12T19:31:37.142Z,30.35
2023-05-12T19:34:42.963Z,30.06
2023-05-12T19:37:49.552Z,30.03
2023-05-12T19:40:55.873Z,30.45
2023-05-12T19:44:04.857Z,30.38
2023-05-12T19:47:10.596Z,30.70
2023-05-12T19:50:18.872Z,30.74
2023-05-12T19:53:24.481Z,30.69
2023-05-12T19:56:32.709Z,30.64
2023-05-12T19:59:44.266Z,31.06
2023-05-12T20:02:51.209Z,30.85
2023-05-12T20:06:00.878Z,30.83
2023-05-12T20:09:08.529Z,31.03
2023-05-12T20:12:14.618Z,31.13
2023-05-12T20:15:24.237Z,31.48
2023-05-12T20:18:30.068Z,31.35
2023-05-12T20:21:36.582Z,31.15
2023-05-12T20:24:42.220Z,31.41
2023-05-12T20:27:49.082Z,31.11
2023-05-12T20:30:57.638Z,31.20
2023-05-12T20:34:04.152Z,31.28
2023-05-12T20:37:09.892Z,31.42
2023-05-12T20:40:16.840Z,31.21
2023-05-12T20:43:22.401Z,30.99
2023-05-12T20:46:31.572Z,31.28
2023-05-12T20:49:37.344Z,31.23
2023-05-12T20:52:46.449Z,31.69
2023-05-12T20:55:52.451Z,31.36
2023-05-12T20:58:59.283Z,31.50
2023-05-12T21:02:07.917Z,31.45
2023-05-12T21:05:14.539Z,31.42
2023-05-12T21:08:20.136Z,31.44
2023-05-12T21:11:27.139Z,31.51
2023-05-12T21:14:33.237Z,31.56
2023-05-12T21:17:43.115Z,31.77
2023-05-12T21:20:48.736Z,32.35
2023-05-12T21:23:55.239Z,32.41
2023-05-12T21:27:02.206Z,31.67
2023-05-12T21:30:11.177Z,31.68
2023-05-12T21:33:19.484Z,31.90
2023-05-12T21:36:29.383Z,31.78
2023-05-12T21:39:35.007Z,31.72
2023-05-12T21:42:41.746Z,31.83
2023-05-12T21:45:47.748Z,32.62
2023-05-12T21:48:57.439Z,32.59
2023-05-12T21:52:03.465Z,33.47
2023-05-12T21:55:13.128Z,33.31
2023-05-12T21:58:18.896Z,33.76
2023-05-12T22:01:25.499Z,33.75
2023-05-12T22:04:33.820Z,33.21
2023-05-12T22:07:40.243Z,32.76
2023-05-12T22:10:46.106Z,32.96
2023-05-12T22:13:52.895Z,33.37
2023-05-12T22:16:58.774Z,33.17
2023-05-12T22:20:09.426Z,33.38
2023-05-12T22:23:15.230Z,33.80
2023-05-12T22:26:21.641Z,33.64
2023-05-12T22:29:27.513Z,33.53
2023-05-12T22:32:34.059Z,34.29
2023-05-12T22:35:42.426Z,34.07
2023-05-12T22:38:48.977Z,34.56
2023-05-12T22:41:54.748Z,34.44
2023-05-12T22:45:04.822Z,34.66
2023-05-12T22:48:10.632Z,34.88
2023-05-12T22:51:19.766Z,34.92
2023-05-12T22:54:25.451Z,35.11
2023-05-12T22:57:32.042Z,35.15
2023-05-12T23:00:37.761Z,35.33
2023-05-12T23:03:45.948Z,35.48
2023-05-12T23:06:54.364Z,35.47
2023-05-12T23:10:00.952Z,35.79
2023-05-12T23:13:06.508Z,36.05
2023-05-12T23:16:13.010Z,36.24
2023-05-12T23:19:20.449Z,35.88
2023-05-12T23:22:29.532Z,36.19
2023-05-12T23:25:35.479Z,36.55
2023-05-12T23:28:41.949Z,36.35
2023-05-12T23:31:47.533Z,36.48
2023-05-12T23:34:54.071Z,36.73
2023-05-12T23:38:02.317Z,36.55
2023-05-12T23:41:08.798Z,37.03
2023-05-12T23:44:14.888Z,37.30
2023-05-12T23:47:21.347Z,37.07
2023-05-12T23:50:27.198Z,37.24
2023-05-12T23:53:36.272Z,37.63
2023-05-12T23:56:41.912Z,37.79
2023-05-12T23:59:48.533Z,37.90
